Weather History for West Bend, WI

Change the Weather History Date:

Tuesday, April 8, 2014

  Actual Average Record
Temperature  
Mean Temperature 46 °F -  
Max Temperature 55 °F 50 °F 80 °F (1991)
Min Temperature 37 °F 30 °F 9 °F (1982)
Degree Days  
Heating Degree Days 19    
Moisture  
Dew Point 35 °F    
Average Humidity 68    
Maximum Humidity 93    
Minimum Humidity 38    
Precipitation  
Precipitation 0.01 in - - ()
Sea Level Pressure  
Sea Level Pressure 29.76 in    
Wind  
Wind Speed 7 mph (NW)    
Max Wind Speed 18 mph    
Max Gust Speed 23 mph    
Visibility 9 miles    
Events Rain    
Averages and records for this station are not official NWS values.
T = Trace of Precipitation, MM = Missing Value Source: NWS Daily Summary

Daily Weather History Graph

Daily Weather History Graph

Search for Another Location

Airport:

Trip Planner

Search our weather history database for the weather conditions in past years. The results will help you decide how hot, cold, wet, or windy it might be!

Date:

Astronomy

Apr. 08, 2014 Rise Set
Actual Time 6:21 AM CDT 7:27 PM CDT
Civil Twilight 5:52 AM CDT 7:56 PM CDT
Nautical Twilight 5:17 AM CDT 8:31 PM CDT
Astronomical Twilight 4:41 AM CDT 9:08 PM CDT
Moon 1:10 PM CDT (4/8) 2:45 AM CDT (4/8)
Length of Visible Light 14h 03m
Length of Day
13h 05m
Waxing Gibbous, 63% of the Moon is Illuminated
Apr 8
Waxing Gibbous
Apr 15
Full
Apr 22
Last Quarter
Apr 29
New
May 6
First Quarter

Hourly Weather History & Observations

Time (CDT) Temp. Windchill Dew Point Humidity Pressure Visibility Wind Dir Wind Speed Gust Speed Precip Events Conditions
12:10 AM 46.4 °F 43.5 °F 37.4 °F 71% 29.63 in 10.0 mi NW 5.8 mph - N/A Rain Light Rain
12:30 AM 44.6 °F 41.4 °F 39.2 °F 81% 29.63 in 10.0 mi North 5.8 mph - N/A Rain Light Rain
12:50 AM 44.6 °F - 39.2 °F 81% 29.63 in 10.0 mi Calm Calm - N/A   Overcast
1:10 AM 44.6 °F 41.4 °F 41.0 °F 87% 29.63 in 7.0 mi WNW 5.8 mph - N/A Rain Light Rain
1:30 AM 44.6 °F 41.4 °F 41.0 °F 87% 29.63 in 7.0 mi WNW 5.8 mph - N/A Rain Light Rain
1:50 AM 44.6 °F 42.2 °F 41.0 °F 87% 29.63 in 5.0 mi NW 4.6 mph - N/A Rain Rain
2:10 AM 44.6 °F 42.2 °F 41.0 °F 87% 29.63 in 4.0 mi NW 4.6 mph - 0.01 in Rain Rain
2:30 AM 44.6 °F 43.1 °F 41.0 °F 87% 29.63 in 4.0 mi WNW 3.5 mph - 0.01 in Rain Rain
2:50 AM 44.6 °F 41.4 °F 41.0 °F 87% 29.63 in 4.0 mi NW 5.8 mph - 0.01 in Rain Rain
3:10 AM 42.8 °F 38.0 °F 41.0 °F 93% 29.64 in 7.0 mi NW 8.1 mph - N/A   Overcast
3:30 AM 42.8 °F 39.3 °F 41.0 °F 93% 29.64 in 7.0 mi NW 5.8 mph - N/A   Overcast
3:50 AM 42.8 °F 39.3 °F 39.2 °F 87% 29.64 in 7.0 mi NW 5.8 mph - N/A   Overcast
4:10 AM 42.8 °F 39.3 °F 39.2 °F 87% 29.64 in 7.0 mi NW 5.8 mph - N/A   Overcast
4:30 AM 41.0 °F 35.8 °F 37.4 °F 87% 29.65 in 10.0 mi NW 8.1 mph - N/A   Overcast
4:50 AM 41.0 °F 37.1 °F 35.6 °F 81% 29.65 in 10.0 mi NW 5.8 mph - N/A   Overcast
5:10 AM 39.2 °F 37.0 °F 35.6 °F 87% 29.66 in 10.0 mi NNW 3.5 mph - N/A   Scattered Clouds
5:30 AM 39.2 °F 37.0 °F 35.6 °F 87% 29.67 in 10.0 mi NW 3.5 mph - N/A   Mostly Cloudy
5:50 AM 39.2 °F 37.0 °F 35.6 °F 87% 29.68 in 10.0 mi WNW 3.5 mph - N/A   Scattered Clouds
6:10 AM 37.4 °F 34.9 °F 35.6 °F 93% 29.68 in 10.0 mi WNW 3.5 mph - N/A   Clear
6:30 AM 37.4 °F 33.8 °F 35.6 °F 93% 29.70 in 7.0 mi WNW 4.6 mph - N/A   Mostly Cloudy
6:50 AM 37.4 °F 32.8 °F 35.6 °F 93% 29.70 in 7.0 mi WNW 5.8 mph - N/A   Overcast
7:10 AM 37.4 °F 32.1 °F 35.6 °F 93% 29.71 in 7.0 mi NW 6.9 mph - N/A   Overcast
7:30 AM 39.2 °F 34.2 °F 35.6 °F 87% 29.71 in 7.0 mi WNW 6.9 mph - N/A   Overcast
7:50 AM 39.2 °F 33.0 °F 33.8 °F 81% 29.72 in 10.0 mi NW 9.2 mph - N/A   Overcast
8:10 AM 41.0 °F 36.4 °F 33.8 °F 76% 29.72 in 10.0 mi NW 6.9 mph - N/A   Overcast
8:30 AM 42.8 °F 37.5 °F 35.6 °F 76% 29.72 in 10.0 mi NW 9.2 mph - N/A   Mostly Cloudy
8:50 AM 42.8 °F 38.0 °F 35.6 °F 76% 29.73 in 10.0 mi NW 8.1 mph - N/A   Overcast
9:10 AM 44.6 °F 40.7 °F 35.6 °F 71% 29.73 in 10.0 mi WNW 6.9 mph - N/A   Scattered Clouds
9:30 AM 44.6 °F 40.2 °F 35.6 °F 71% 29.73 in 10.0 mi NW 8.1 mph - N/A   Clear
9:50 AM 46.4 °F 42.9 °F 35.6 °F 66% 29.74 in 10.0 mi NW 6.9 mph - N/A   Clear
10:10 AM 46.4 °F 42.4 °F 35.6 °F 66% 29.75 in 10.0 mi NNW 8.1 mph - N/A   Scattered Clouds
10:30 AM 50.0 °F - 35.6 °F 58% 29.75 in 10.0 mi NW 10.4 mph - N/A   Scattered Clouds
10:50 AM 50.0 °F - 35.6 °F 58% 29.76 in 10.0 mi NW 9.2 mph - N/A   Mostly Cloudy
11:10 AM 50.0 °F - 33.8 °F 54% 29.75 in 10.0 mi NNW 10.4 mph - N/A   Scattered Clouds
11:30 AM 51.8 °F - 33.8 °F 50% 29.76 in 10.0 mi NW 13.8 mph - N/A   Clear
11:50 AM 51.8 °F - 33.8 °F 50% 29.76 in 10.0 mi NNW 13.8 mph 18.4 mph N/A   Scattered Clouds
12:10 PM 51.8 °F - 33.8 °F 50% 29.77 in 10.0 mi NW 10.4 mph 21.9 mph N/A   Mostly Cloudy
12:30 PM 51.8 °F - 33.8 °F 50% 29.77 in 10.0 mi NW 13.8 mph 17.3 mph N/A   Mostly Cloudy
12:50 PM 53.6 °F - 33.8 °F 47% 29.77 in 10.0 mi NW 12.7 mph 23.0 mph N/A   Mostly Cloudy
1:10 PM 51.8 °F - 32.0 °F 47% 29.76 in 10.0 mi North 12.7 mph 21.9 mph N/A   Mostly Cloudy
1:30 PM 53.6 °F - 32.0 °F 44% 29.77 in 10.0 mi NW 12.7 mph 19.6 mph N/A   Scattered Clouds
1:50 PM 55.4 °F - 32.0 °F 41% 29.77 in 10.0 mi NW 12.7 mph 20.7 mph N/A   Scattered Clouds
2:10 PM 55.4 °F - 30.2 °F 38% 29.77 in 10.0 mi WNW 18.4 mph - N/A   Scattered Clouds
2:30 PM 53.6 °F - 32.0 °F 44% 29.78 in 10.0 mi North 9.2 mph 17.3 mph N/A   Mostly Cloudy
2:50 PM 53.6 °F - 32.0 °F 44% 29.78 in 10.0 mi North 10.4 mph - N/A   Overcast
3:10 PM 53.6 °F - 32.0 °F 44% 29.78 in 10.0 mi North 8.1 mph 17.3 mph N/A   Mostly Cloudy
3:30 PM 55.4 °F - 30.2 °F 38% 29.78 in 10.0 mi NW 11.5 mph - N/A   Scattered Clouds
3:50 PM 55.4 °F - 32.0 °F 41% 29.78 in 10.0 mi NW 13.8 mph 17.3 mph N/A   Scattered Clouds
4:10 PM 55.4 °F - 30.2 °F 38% 29.79 in 10.0 mi NW 16.1 mph 20.7 mph N/A   Scattered Clouds
4:30 PM 55.4 °F - 30.2 °F 38% 29.80 in 10.0 mi NNW 12.7 mph 23.0 mph N/A   Mostly Cloudy
4:50 PM 53.6 °F - 28.4 °F 38% 29.80 in 10.0 mi NNW 10.4 mph - N/A   Overcast
5:10 PM 53.6 °F - 30.2 °F 41% 29.81 in 10.0 mi NNW 10.4 mph - N/A   Overcast
5:50 PM 53.6 °F - 28.4 °F 38% 29.83 in 10.0 mi NNW 12.7 mph - N/A   Overcast
6:10 PM 51.8 °F - 32.0 °F 47% 29.83 in 10.0 mi ENE 11.5 mph - N/A   Overcast
6:30 PM 50.0 °F - 32.0 °F 50% 29.84 in 10.0 mi NNE 5.8 mph - N/A   Overcast
6:50 PM 48.2 °F - 32.0 °F 54% 29.87 in 10.0 mi West 15.0 mph 20.7 mph N/A Rain Light Rain
7:10 PM 44.6 °F 40.7 °F 35.6 °F 71% 29.86 in 10.0 mi West 6.9 mph - N/A   Overcast
7:50 PM 44.6 °F 43.1 °F 35.6 °F 71% 29.87 in 10.0 mi West 3.5 mph - N/A   Mostly Cloudy
8:10 PM 44.6 °F - 35.6 °F 71% 29.88 in 10.0 mi Calm Calm - N/A   Scattered Clouds
8:50 PM 42.8 °F 40.1 °F 33.8 °F 70% 29.91 in 10.0 mi ENE 4.6 mph - N/A   Overcast
9:10 PM 41.0 °F 39.0 °F 32.0 °F 70% 29.91 in 10.0 mi ENE 3.5 mph - N/A   Mostly Cloudy
9:30 PM 41.0 °F 39.0 °F 32.0 °F 70% 29.91 in 10.0 mi NE 3.5 mph - N/A   Scattered Clouds
9:50 PM 41.0 °F - 32.0 °F 70% 29.91 in 10.0 mi Calm Calm - N/A   Scattered Clouds
10:10 PM 39.2 °F 35.9 °F 32.0 °F 75% 29.92 in 10.0 mi North 4.6 mph - N/A   Mostly Cloudy
10:30 PM 41.0 °F 38.0 °F 32.0 °F 70% 29.92 in 10.0 mi ENE 4.6 mph - N/A Rain Light Rain
11:10 PM 39.2 °F 37.0 °F 32.0 °F 75% 29.94 in 10.0 mi NE 3.5 mph - N/A   Mostly Cloudy
11:30 PM 37.4 °F 34.9 °F 32.0 °F 81% 29.94 in 10.0 mi East 3.5 mph - N/A   Mostly Cloudy
11:50 PM 37.4 °F - 30.2 °F 75% 29.94 in 10.0 mi Calm Calm - N/A   Mostly Cloudy